Terminal Aerodrome Forecast
Issued by NWS

Home | Current Version | Previous Version | Graphics & Text | Print | Product List | Glossary On
Versions: 1 2 3 4 5 6 7 8 9 10 11 12 13 14 15
389
FTUS43 KFGF 201734
TAFBJI
TAF
KBJI 201734Z 2018/2118 32006KT P6SM FEW080
     FM210200 00000KT P6SM FEW080
     FM210700 VRB03KT P6SM BKN080
     FM211400 13007KT P6SM BKN070=

USA.gov is the U.S. government's official web portal to all federal, state and local government web resources and services.